Time;durP1;ratioP1;P1;durP2;ratioP2;P2;SDS_P1;SDS_P2;PMS_P1;PMS_P2;Temp;Humidity;BMP_temperature;BMP_pressure;BME280_temperature;BME280_humidity;BME280_pressure;Samples;Min_cycle;Max_cycle;Signal;HPM_P1;HPM_P2
2022/02/10 00:07:01;;;;;;;7.92;4.97;;;4.60;88.10;;;;;;1924804;74;21111;-45
2022/02/10 00:14:57;;;;;;;10.98;4.62;;;4.80;88.30;;;;;;1924765;74;21002;-45
2022/02/10 00:34:44;;;;;;;5.78;4.42;;;4.90;87.60;;;;;;1924584;74;21039;-45
2022/02/10 00:36:25;;;;;;;8.08;4.87;;;4.90;87.80;;;;;;1905231;74;21108;-45
2022/02/10 00:39:02;;;;;;;8.15;4.42;;;5.00;87.90;;;;;;1924262;74;21058;-45
2022/02/10 00:41:22;;;;;;;8.68;4.28;;;5.00;87.90;;;;;;1923334;74;21015;-45
2022/02/10 00:43:52;;;;;;;10.00;4.37;;;5.00;88.00;;;;;;1924693;74;21011;-45
2022/02/10 00:46:21;;;;;;;6.05;3.95;;;5.00;88.00;;;;;;1924630;74;21019;-45
2022/02/10 00:48:50;;;;;;;8.18;4.90;;;5.10;88.10;;;;;;1924582;74;21023;-45
2022/02/10 00:51:21;;;;;;;7.65;4.22;;;5.10;88.10;;;;;;1924732;74;21151;-46
2022/02/10 00:53:51;;;;;;;6.12;4.17;;;5.10;88.10;;;;;;1924645;74;21003;-45
2022/02/10 00:56:21;;;;;;;6.65;4.30;;;5.20;88.20;;;;;;1924643;74;21023;-45
2022/02/10 00:58:59;;;;;;;6.15;4.50;;;5.20;88.10;;;;;;1924572;74;20995;-45
2022/02/10 01:07:04;;;;;;;7.65;4.53;;;5.20;88.30;;;;;;1924683;74;21038;-45
2022/02/10 01:31:16;;;;;;;8.53;5.25;;;4.90;87.30;;;;;;1924753;74;21148;-45
2022/02/10 01:33:46;;;;;;;7.58;5.08;;;4.90;87.10;;;;;;1924702;74;21014;-45
2022/02/10 01:36:16;;;;;;;6.17;4.30;;;4.80;87.30;;;;;;1924740;74;21015;-45
2022/02/10 01:38:45;;;;;;;9.53;4.47;;;4.70;87.60;;;;;;1924599;74;21014;-45
2022/02/10 01:41:48;;;;;;;5.33;3.85;;;4.70;87.30;;;;;;1924619;74;21054;-45
2022/02/10 01:57:51;;;;;;;5.42;4.00;;;4.80;88.00;;;;;;1924687;74;21097;-45
2022/02/10 02:03:24;;;;;;;8.30;4.15;;;4.80;87.20;;;;;;1924605;74;21038;-45
2022/02/10 02:06:00;;;;;;;10.10;5.05;;;4.80;87.20;;;;;;1908723;74;21028;-45
2022/02/10 02:08:28;;;;;;;10.00;4.50;;;4.70;87.20;;;;;;1904966;74;21023;-45
2022/02/10 02:10:56;;;;;;;6.85;5.00;;;4.70;87.00;;;;;;1905210;75;21008;-45
2022/02/10 02:13:26;;;;;;;7.33;4.40;;;4.60;88.00;;;;;;1905186;75;21497;-45
2022/02/10 02:15:56;;;;;;;15.88;6.05;;;4.60;87.10;;;;;;1905308;75;21094;-45
2022/02/10 02:18:25;;;;;;;14.47;7.03;;;4.60;86.90;;;;;;1905283;75;21091;-46
2022/02/10 02:20:56;;;;;;;16.97;7.22;;;4.50;86.10;;;;;;1905226;75;21020;-45
2022/02/10 02:23:27;;;;;;;16.62;6.97;;;4.50;86.80;;;;;;1905343;75;21008;-46
2022/02/10 02:26:04;;;;;;;16.00;7.40;;;4.40;86.10;;;;;;1905215;75;21027;-47
2022/02/10 02:28:29;;;;;;;20.08;8.78;;;4.40;86.10;;;;;;1904818;74;21532;-45
2022/02/10 02:31:03;;;;;;;18.30;7.45;;;4.30;86.30;;;;;;1905282;75;21015;-45
2022/02/10 03:06:33;;;;;;;17.60;7.67;;;4.30;87.00;;;;;;1905336;74;21051;-46
2022/02/10 03:09:00;;;;;;;22.37;8.58;;;4.30;86.50;;;;;;1904173;74;21036;-45
2022/02/10 03:11:27;;;;;;;18.42;7.25;;;4.20;86.50;;;;;;1905109;74;21478;-45
2022/02/10 03:14:07;;;;;;;18.30;8.65;;;4.20;86.80;;;;;;1905321;75;20988;-46
2022/02/10 04:06:36;;;;;;;14.40;9.03;;;3.90;86.60;;;;;;1901928;74;21062;-46
2022/02/10 04:09:15;;;;;;;14.60;8.55;;;3.90;86.30;;;;;;1921517;74;21022;-45
2022/02/10 04:16:44;;;;;;;15.30;8.23;;;3.80;85.90;;;;;;1924602;74;21015;-46
2022/02/10 04:19:40;;;;;;;13.25;8.88;;;3.80;85.90;;;;;;1924092;74;21038;-46
2022/02/10 04:24:37;;;;;;;10.55;4.95;;;3.80;86.00;;;;;;1924570;74;21019;-47
2022/02/10 04:41:07;;;;;;;15.78;7.45;;;3.90;85.90;;;;;;1924726;74;21034;-46
2022/02/10 04:53:18;;;;;;;15.68;8.73;;;3.90;86.50;;;;;;1924777;74;21172;-47
2022/02/10 04:54:10;;;;;;;15.88;9.25;;;4.10;86.90;;;;;;1924609;74;21058;-46
2022/02/10 05:02:14;;;;;;;18.57;8.80;;;4.40;86.50;;;;;;1924758;74;21155;-47
2022/02/10 05:36:04;;;;;;;28.65;13.80;;;4.70;86.60;;;;;;1905251;75;21039;-45
2022/02/10 05:38:36;;;;;;;23.92;13.65;;;4.60;86.50;;;;;;1905013;74;21506;-45
2022/02/10 05:46:39;;;;;;;27.00;13.88;;;4.50;86.20;;;;;;1905265;75;21104;-45
2022/02/10 06:01:12;;;;;;;21.40;11.50;;;4.60;87.00;;;;;;1905282;75;21059;-46
2022/02/10 06:02:26;;;;;;;19.82;10.93;;;4.70;87.20;;;;;;1881958;75;21222;-46
2022/02/10 06:39:12;;;;;;;11.50;6.83;;;5.40;84.70;;;;;;1924585;74;21015;-46
2022/02/10 06:51:41;;;;;;;13.75;6.58;;;5.40;84.80;;;;;;1924500;74;21461;-47
2022/02/10 06:57:19;;;;;;;11.73;6.28;;;5.40;84.80;;;;;;1924665;74;21046;-46
2022/02/10 07:10:27;;;;;;;13.50;7.20;;;5.40;84.80;;;;;;1924527;74;21076;-46
2022/02/10 08:05:03;;;;;;;10.55;6.92;;;5.60;83.40;;;;;;1924645;74;21117;-47
2022/02/10 08:52:34;;;;;;;7.80;5.72;;;5.70;83.00;;;;;;1923951;74;21143;-45
2022/02/10 08:59:54;;;;;;;16.10;9.35;;;5.90;82.20;;;;;;1903029;74;21052;-45
2022/02/10 09:04:51;;;;;;;14.63;7.78;;;5.90;81.40;;;;;;1890874;75;21090;-45
2022/02/10 09:07:41;;;;;;;15.10;8.10;;;5.90;81.60;;;;;;1888741;75;21502;-46
2022/02/10 09:10:05;;;;;;;12.03;7.70;;;5.90;82.00;;;;;;1887949;76;21080;-46
2022/02/10 09:24:02;;;;;;;12.25;7.58;;;6.20;81.40;;;;;;1862198;75;21040;-46
2022/02/10 09:59:11;;;;;;;8.60;4.80;;;6.40;76.40;;;;;;1890720;76;21028;-47
2022/02/10 10:01:42;;;;;;;8.98;4.35;;;6.40;76.00;;;;;;1889393;75;21083;-48
2022/02/10 10:04:17;;;;;;;8.03;4.62;;;6.40;76.20;;;;;;1890241;75;21024;-48
2022/02/10 10:06:57;;;;;;;9.05;4.20;;;6.30;74.40;;;;;;1890029;75;21094;-46
2022/02/10 10:12:45;;;;;;;9.28;5.70;;;6.30;75.20;;;;;;1890875;76;21068;-47
2022/02/10 10:15:26;;;;;;;12.47;6.30;;;6.30;76.50;;;;;;1887892;76;21122;-46
2022/02/10 10:21:07;;;;;;;6.72;3.90;;;6.30;76.30;;;;;;1890709;76;21075;-46
2022/02/10 10:23:50;;;;;;;10.25;4.97;;;6.30;74.20;;;;;;1888845;75;21028;-48
2022/02/10 10:56:10;;;;;;;10.40;5.47;;;6.70;72.20;;;;;;1890828;76;21048;-46
2022/02/10 10:58:39;;;;;;;8.03;4.12;;;6.70;72.50;;;;;;1890037;75;21138;-46
2022/02/10 11:38:30;;;;;;;8.25;2.45;;;7.20;67.40;;;;;;1890991;76;21099;-47
2022/02/10 11:43:40;;;;;;;5.22;2.10;;;7.20;65.90;;;;;;1891101;76;21021;-47
2022/02/10 12:33:15;;;;;;;5.45;2.22;;;7.40;65.50;;;;;;1872730;77;21331;-47
2022/02/10 12:43:33;;;;;;;5.65;2.55;;;7.40;66.90;;;;;;1872772;77;21030;-46
2022/02/10 13:48:29;;;;;;;4.28;2.35;;;7.10;65.40;;;;;;1872727;75;20132;-46
2022/02/10 14:13:36;;;;;;;6.53;3.25;;;7.00;66.00;;;;;;1872917;75;21238;-46
2022/02/10 14:18:18;;;;;;;6.25;2.98;;;7.00;66.70;;;;;;1873029;75;21183;-45
2022/02/10 14:28:25;;;;;;;6.60;2.98;;;6.80;67.20;;;;;;1872798;75;21181;-45
2022/02/10 14:30:51;;;;;;;10.93;3.50;;;6.80;67.70;;;;;;1871962;76;21103;-46
2022/02/10 14:33:28;;;;;;;9.20;4.10;;;6.70;68.10;;;;;;1872638;75;21105;-46
2022/02/10 14:36:11;;;;;;;9.83;4.42;;;6.70;68.60;;;;;;1872723;76;21441;-45
2022/02/10 15:53:38;;;;;;;10.63;3.50;;;6.10;74.20;;;;;;1872968;75;21077;-46
2022/02/10 16:17:39;;;;;;;6.75;3.08;;;6.00;75.00;;;;;;1857896;76;21049;-46
2022/02/10 16:20:17;;;;;;;6.15;2.72;;;6.00;75.20;;;;;;1872886;77;21037;-46
2022/02/10 16:22:57;;;;;;;5.20;2.47;;;6.00;74.50;;;;;;1871881;76;21487;-45
2022/02/10 16:25:12;;;;;;;5.03;2.92;;;5.90;75.20;;;;;;1870064;76;21112;-45
2022/02/10 16:27:49;;;;;;;5.83;2.90;;;6.00;75.30;;;;;;1872771;75;21026;-46
2022/02/10 16:30:13;;;;;;;3.92;2.80;;;6.00;75.70;;;;;;1871761;76;21030;-46
2022/02/10 16:32:42;;;;;;;9.58;2.77;;;6.00;75.50;;;;;;1872788;77;21103;-47
2022/02/10 16:35:12;;;;;;;4.97;2.60;;;6.00;75.30;;;;;;1872805;76;21104;-46
2022/02/10 16:37:44;;;;;;;5.15;2.92;;;6.00;75.30;;;;;;1872814;77;21095;-46
2022/02/10 16:40:12;;;;;;;7.03;3.08;;;6.00;75.10;;;;;;1872745;76;21009;-45
2022/02/10 16:42:42;;;;;;;6.92;3.05;;;6.00;75.70;;;;;;1872754;77;21041;-46
2022/02/10 16:45:11;;;;;;;10.28;2.95;;;6.00;75.50;;;;;;1872788;77;21006;-46
2022/02/10 16:47:41;;;;;;;5.95;2.90;;;6.00;75.80;;;;;;1872787;76;21034;-45
2022/02/10 16:50:11;;;;;;;5.37;2.77;;;6.00;75.90;;;;;;1872784;75;21010;-46
2022/02/10 16:52:46;;;;;;;5.85;3.15;;;6.00;75.90;;;;;;1872746;77;21092;-46
2022/02/10 16:58:08;;;;;;;10.85;3.00;;;6.00;75.30;;;;;;1872781;76;21107;-46
2022/02/10 17:06:07;;;;;;;6.37;3.58;;;6.00;76.70;;;;;;1843457;78;21207;-45
2022/02/10 17:14:10;;;;;;;5.28;2.83;;;6.10;76.10;;;;;;1872806;75;21145;-46
2022/02/10 17:17:17;;;;;;;4.67;3.20;;;6.10;76.00;;;;;;1871658;76;21050;-44
2022/02/10 17:27:27;;;;;;;4.50;2.85;;;6.10;75.80;;;;;;1872866;77;21107;-45
2022/02/10 17:35:32;;;;;;;16.20;5.90;;;6.10;76.10;;;;;;1872809;77;21111;-46
2022/02/10 17:46:20;;;;;;;6.28;2.77;;;6.10;75.80;;;;;;1872817;76;21046;-45
2022/02/10 17:51:45;;;;;;;9.13;3.05;;;6.20;75.90;;;;;;1872755;76;21042;-46
2022/02/10 17:54:04;;;;;;;3.10;2.20;;;6.20;76.10;;;;;;1870096;77;21096;-45
2022/02/10 17:56:34;;;;;;;4.75;3.10;;;6.20;75.90;;;;;;1872697;77;21026;-45
2022/02/10 17:59:05;;;;;;;7.15;2.47;;;6.20;76.20;;;;;;1872915;77;21095;-45
2022/02/10 18:01:35;;;;;;;8.10;3.50;;;6.20;76.10;;;;;;1872998;77;21092;-46
2022/02/10 18:04:04;;;;;;;4.17;2.67;;;6.20;76.50;;;;;;1872727;76;21029;-45
2022/02/10 18:06:39;;;;;;;3.90;2.20;;;6.20;76.60;;;;;;1872707;77;21010;-45
2022/02/10 18:09:35;;;;;;;6.20;2.45;;;6.30;76.70;;;;;;1872139;77;21131;-46
2022/02/10 18:14:57;;;;;;;4.08;2.40;;;6.40;76.60;;;;;;1872815;75;21077;-45
2022/02/10 18:17:29;;;;;;;6.25;2.83;;;6.40;76.40;;;;;;1872458;77;21030;-45
2022/02/10 18:20:05;;;;;;;5.80;2.60;;;6.30;76.30;;;;;;1872284;75;21080;-45
2022/02/10 18:22:41;;;;;;;5.40;2.83;;;6.30;76.60;;;;;;1870878;77;21030;-45
2022/02/10 18:28:16;;;;;;;5.60;2.72;;;6.30;77.10;;;;;;1872741;76;21042;-45
2022/02/10 19:11:09;;;;;;;9.78;5.92;;;6.40;77.00;;;;;;1872699;76;21033;-46
2022/02/10 19:13:39;;;;;;;10.13;4.58;;;6.40;77.30;;;;;;1872710;75;21061;-46
2022/02/10 19:16:09;;;;;;;8.15;3.35;;;6.40;77.20;;;;;;1872752;75;21535;-45
2022/02/10 19:18:38;;;;;;;6.50;3.40;;;6.40;77.20;;;;;;1872723;77;21014;-46
2022/02/10 19:21:08;;;;;;;4.33;2.90;;;6.40;77.30;;;;;;1872627;75;21089;-45
2022/02/10 19:23:37;;;;;;;5.37;3.27;;;6.40;77.40;;;;;;1872789;75;21073;-46
2022/02/10 19:26:07;;;;;;;8.93;3.70;;;6.40;77.40;;;;;;1872695;76;21077;-46
2022/02/10 19:28:36;;;;;;;6.55;2.62;;;6.40;77.50;;;;;;1872662;76;21095;-46
2022/02/10 19:31:07;;;;;;;5.30;2.67;;;6.50;77.60;;;;;;1872578;77;21178;-46
2022/02/10 19:33:36;;;;;;;3.12;2.20;;;6.50;77.50;;;;;;1872784;75;21023;-47
2022/02/10 19:36:06;;;;;;;4.12;2.25;;;6.50;77.60;;;;;;1872615;76;21065;-47
2022/02/10 19:38:35;;;;;;;4.47;2.17;;;6.50;77.50;;;;;;1872727;75;21096;-46
2022/02/10 19:41:05;;;;;;;4.37;2.90;;;6.50;77.60;;;;;;1872832;75;21111;-46
2022/02/10 19:43:34;;;;;;;5.40;2.55;;;6.50;77.70;;;;;;1872892;75;21181;-47
2022/02/10 19:46:03;;;;;;;4.05;2.27;;;6.50;77.60;;;;;;1872821;75;21500;-46
2022/02/10 19:48:32;;;;;;;4.22;2.40;;;6.50;77.70;;;;;;1872881;76;21460;-47
2022/02/10 19:51:02;;;;;;;3.40;2.30;;;6.50;77.80;;;;;;1872811;75;21037;-46
2022/02/10 19:53:31;;;;;;;8.10;2.92;;;6.50;77.70;;;;;;1872820;75;21022;-46
2022/02/10 19:56:00;;;;;;;3.67;2.35;;;6.50;77.70;;;;;;1872862;76;21030;-47
2022/02/10 19:58:30;;;;;;;6.75;2.92;;;6.50;77.70;;;;;;1872757;76;21106;-47
2022/02/10 20:01:01;;;;;;;4.15;2.83;;;6.60;77.80;;;;;;1872774;75;21105;-46
2022/02/10 20:03:33;;;;;;;8.83;2.52;;;6.60;77.70;;;;;;1872900;77;21464;-46
2022/02/10 20:06:03;;;;;;;3.72;2.55;;;6.60;77.80;;;;;;1873088;76;21034;-46
2022/02/10 20:08:32;;;;;;;6.25;2.77;;;6.60;77.90;;;;;;1872922;75;21025;-46
2022/02/10 20:11:01;;;;;;;4.60;2.30;;;6.60;78.40;;;;;;1872773;77;21033;-46
2022/02/10 20:13:32;;;;;;;5.90;2.52;;;6.60;78.00;;;;;;1872921;75;21009;-46
2022/02/10 20:16:07;;;;;;;3.52;2.27;;;6.60;78.10;;;;;;1872940;77;21488;-46
2022/02/10 20:18:32;;;;;;;6.75;2.15;;;6.60;78.00;;;;;;1872184;75;21123;-46
2022/02/10 20:21:03;;;;;;;2.70;2.08;;;6.60;78.20;;;;;;1872842;76;21033;-47
2022/02/10 20:23:34;;;;;;;3.08;2.35;;;6.60;78.20;;;;;;1872890;76;21009;-47
2022/02/10 20:26:04;;;;;;;6.90;1.95;;;6.70;78.40;;;;;;1872860;76;21089;-47
2022/02/10 20:28:33;;;;;;;5.08;2.72;;;6.70;78.30;;;;;;1873013;75;21029;-47
2022/02/10 20:31:03;;;;;;;3.67;1.85;;;6.70;78.60;;;;;;1872902;75;21111;-46
2022/02/10 20:33:33;;;;;;;1.90;1.20;;;6.70;78.60;;;;;;1872788;75;21093;-47
2022/02/10 20:36:04;;;;;;;3.87;2.20;;;6.70;78.80;;;;;;1872788;76;21010;-47
2022/02/10 20:38:38;;;;;;;5.10;2.55;;;6.70;78.90;;;;;;1872892;75;21053;-47
2022/02/10 20:41:10;;;;;;;4.30;2.08;;;6.80;78.90;;;;;;1872952;77;21104;-46
2022/02/10 20:43:37;;;;;;;5.12;2.50;;;6.70;78.80;;;;;;1872362;75;21006;-47
2022/02/10 20:46:09;;;;;;;4.83;1.92;;;6.80;79.10;;;;;;1872731;75;21010;-46
2022/02/10 20:48:40;;;;;;;2.37;2.12;;;6.80;79.10;;;;;;1872666;75;21100;-46
2022/02/10 20:51:14;;;;;;;2.37;2.00;;;6.80;79.20;;;;;;1872729;76;21073;-46
2022/02/10 20:53:48;;;;;;;3.72;1.85;;;6.80;79.30;;;;;;1872907;77;21041;-46
2022/02/10 20:56:19;;;;;;;2.67;2.13;;;6.80;79.20;;;;;;1873160;77;21103;-46
2022/02/10 20:58:55;;;;;;;6.67;2.65;;;6.80;79.30;;;;;;1872837;75;21026;-49
2022/02/10 21:01:22;;;;;;;3.95;1.60;;;6.80;79.40;;;;;;1872361;77;21092;-46
2022/02/10 21:03:51;;;;;;;3.17;1.80;;;6.80;79.30;;;;;;1872737;75;21099;-46
2022/02/10 21:09:10;;;;;;;8.33;2.58;;;6.80;79.10;;;;;;1872743;76;21002;-46
2022/02/10 21:11:34;;;;;;;2.87;1.27;;;6.80;79.10;;;;;;1871491;76;21053;-47
2022/02/10 21:14:12;;;;;;;9.18;1.65;;;6.80;78.90;;;;;;1872709;75;21108;-47
2022/02/10 21:16:36;;;;;;;6.78;1.55;;;6.80;78.90;;;;;;1871333;75;21112;-47
2022/02/10 21:19:05;;;;;;;2.00;1.22;;;6.80;78.70;;;;;;1872822;75;21001;-46
2022/02/10 21:21:35;;;;;;;3.58;2.40;;;6.80;78.40;;;;;;1872772;76;21054;-46
2022/02/10 21:24:11;;;;;;;2.98;2.20;;;6.80;78.50;;;;;;1872708;75;21029;-48
2022/02/10 21:26:47;;;;;;;5.78;2.62;;;6.80;78.70;;;;;;1871791;77;20998;-49
2022/02/10 21:29:07;;;;;;;2.77;2.05;;;6.90;78.60;;;;;;1870303;77;21029;-47
2022/02/10 21:31:44;;;;;;;6.12;1.98;;;6.80;78.50;;;;;;1872874;75;21029;-45
2022/02/10 21:34:21;;;;;;;4.83;1.70;;;6.90;78.50;;;;;;1872332;76;21113;-45
2022/02/10 21:37:07;;;;;;;3.47;1.92;;;6.80;78.40;;;;;;1871796;77;21508;-45
2022/02/10 21:39:47;;;;;;;3.60;2.22;;;6.80;78.50;;;;;;1872213;75;21033;-46
2022/02/10 21:47:56;;;;;;;4.53;1.92;;;6.80;78.70;;;;;;1872858;75;21038;-45
2022/02/10 21:56:26;;;;;;;7.12;2.10;;;6.80;79.30;;;;;;1872829;75;21057;-46
2022/02/10 22:04:04;;;;;;;3.98;1.67;;;6.80;79.90;;;;;;1848907;77;21054;-46
2022/02/10 22:17:25;;;;;;;4.55;2.58;;;6.70;80.70;;;;;;1884759;75;21045;-45
2022/02/10 22:19:41;;;;;;;4.75;2.05;;;6.80;80.90;;;;;;1879867;75;21107;-46
2022/02/10 22:22:15;;;;;;;5.12;2.65;;;6.70;81.30;;;;;;1884099;76;21002;-47
2022/02/10 22:24:38;;;;;;;3.98;2.05;;;6.70;81.30;;;;;;1883249;76;21073;-45
2022/02/10 22:27:07;;;;;;;2.92;1.47;;;6.70;81.50;;;;;;1884719;76;21095;-46
2022/02/10 22:29:43;;;;;;;12.15;2.72;;;6.70;82.00;;;;;;1884732;75;21468;-46
2022/02/10 22:32:21;;;;;;;6.20;2.52;;;6.70;81.40;;;;;;1883440;75;21033;-45
2022/02/10 22:34:40;;;;;;;1.92;1.60;;;6.70;81.30;;;;;;1881510;75;21582;-46
2022/02/10 22:37:13;;;;;;;4.37;1.57;;;6.70;81.80;;;;;;1884666;75;21504;-46
2022/02/10 22:39:46;;;;;;;3.85;2.12;;;6.70;82.40;;;;;;1884640;76;21028;-45
2022/02/10 22:42:13;;;;;;;6.40;2.10;;;6.70;82.10;;;;;;1884608;76;21509;-46
2022/02/10 22:44:43;;;;;;;2.85;2.12;;;6.70;82.20;;;;;;1884631;76;21104;-46
2022/02/10 22:47:12;;;;;;;5.28;2.50;;;6.70;82.20;;;;;;1884608;76;21029;-45
2022/02/10 22:49:41;;;;;;;5.40;1.87;;;6.70;82.10;;;;;;1884717;75;21037;-46
2022/02/10 22:52:13;;;;;;;7.50;2.35;;;6.60;82.40;;;;;;1884591;76;21088;-45
2022/02/10 22:54:42;;;;;;;5.37;2.90;;;6.60;82.40;;;;;;1884818;75;21061;-46
2022/02/10 22:57:11;;;;;;;4.92;2.05;;;6.60;82.20;;;;;;1884619;75;21123;-45
2022/02/10 22:59:41;;;;;;;7.58;2.87;;;6.60;83.20;;;;;;1884579;75;21068;-45
2022/02/10 23:02:10;;;;;;;4.78;2.40;;;6.70;82.90;;;;;;1884741;75;21095;-46
2022/02/10 23:04:39;;;;;;;6.22;2.92;;;6.60;82.80;;;;;;1884597;75;21029;-46
2022/02/10 23:07:10;;;;;;;6.87;2.83;;;6.60;82.90;;;;;;1884751;76;21103;-45
2022/02/10 23:09:48;;;;;;;6.72;2.50;;;6.60;83.30;;;;;;1884626;75;21488;-46
2022/02/10 23:12:11;;;;;;;7.58;2.83;;;6.60;83.80;;;;;;1882941;75;21065;-46
2022/02/10 23:14:40;;;;;;;4.75;2.62;;;6.60;83.70;;;;;;1884683;75;21025;-45
2022/02/10 23:17:10;;;;;;;6.65;2.60;;;6.70;83.80;;;;;;1874572;75;21045;-45
2022/02/10 23:19:39;;;;;;;5.00;2.95;;;6.60;83.90;;;;;;1872810;76;21018;-46
2022/02/10 23:22:08;;;;;;;4.37;2.55;;;6.60;83.40;;;;;;1872813;76;21030;-45
2022/02/10 23:24:38;;;;;;;3.58;2.80;;;6.60;83.80;;;;;;1872860;76;21045;-45
2022/02/10 23:27:07;;;;;;;3.25;2.52;;;6.60;83.90;;;;;;1872792;77;21030;-45
2022/02/10 23:29:36;;;;;;;4.00;2.25;;;6.60;84.70;;;;;;1872821;76;21057;-46
2022/02/10 23:32:06;;;;;;;7.62;3.15;;;6.60;85.10;;;;;;1872791;76;21029;-46
2022/02/10 23:34:36;;;;;;;9.35;3.42;;;6.60;84.70;;;;;;1872791;76;21096;-48
2022/02/10 23:37:05;;;;;;;6.22;3.20;;;6.60;85.00;;;;;;1872745;75;21034;-46
2022/02/10 23:39:39;;;;;;;4.95;3.10;;;6.60;84.70;;;;;;1872882;75;21100;-46
2022/02/10 23:42:11;;;;;;;5.15;3.52;;;6.50;85.40;;;;;;1872289;75;21084;-47
2022/02/10 23:44:45;;;;;;;9.55;4.25;;;6.50;85.40;;;;;;1871839;76;21033;-45
2022/02/10 23:47:11;;;;;;;10.05;3.70;;;6.50;85.00;;;;;;1871556;76;21471;-46
2022/02/10 23:49:39;;;;;;;5.95;3.77;;;6.50;86.20;;;;;;1872768;75;21030;-46
2022/02/10 23:52:10;;;;;;;11.30;4.12;;;6.50;85.50;;;;;;1872741;77;21018;-45
2022/02/10 23:54:43;;;;;;;6.28;3.45;;;6.40;85.40;;;;;;1872915;75;21087;-46
2022/02/10 23:57:18;;;;;;;5.25;3.47;;;6.50;85.70;;;;;;1872796;77;21483;-47
